Sanders, Montana
Current Conditions -  °F | °C
As of 5:53 AM on Saturday 20 Dec 2014 (Local Time) from KMLS Reporting Station
Broken Clouds Broken Clouds  
Wind Chill: 26°   Ceiling: 12000
Heat Index: 31°   Visibility: 10mi
Dew Point: 24°   Wind: 5mph
Humidity: 76%   Direction: 230°SW
Pressure: 29.88"   Gusts: NA
Location:  46.29°N, 107.1°W
Report Text: KMLS 201253Z AUTO 23004KT 10SM BKN120 M01/M04 A2988 RMK AO2 SLP139 T10061044
Loading
Personal Weather Stations






























Interactive Weather Map New forecast layout! Learn more

10-Day Weather Forecast

Advertisements
Track Severe Weather on mobile